Straumvik — LEYJ — position and weather

sailwx.info

Track history (hours):
 
Tides and Currents Weather Stations Pressure Air Temp Water Temp Dewpoint Dewpoint Depression Visibility Wind Speed Wind Dir Waves Ship Positions

Straumvik

Last reported at 2016-Jun-28 22:27 UTC. Time now 2016-Jun-29 11:11 UTC.
Position N 59°30' E 005°13'.

Length 50 m; draft 5 m.

Type: Ship. MMSI: 258260000.

Date/timePositionNaut miles runAvg speedWind from/ knotsBaromVisibWave heightAir tempDewpointWater temp
2016-Jun-28 22:27N 59°30' E 005°13'16 4.0
2016-Jun-28 18:33N 59°15' E 005°21'6 6.3
2016-Jun-28 17:33N 59°09' E 005°24'6 6.0
2016-Jun-28 16:33N 59°07' E 005°35'7 6.6
2016-Jun-28 15:33N 59°03' E 005°46'7 6.5
2016-Jun-28 14:34N 58°58' E 005°55'7 6.7
2016-Jun-28 13:31N 58°54' E 006°05'0 0.1
2016-Jun-28 11:20N 58°54' E 006°05'1 1.4
2016-Jun-28 10:33N 58°54' E 006°04'8 7.7
2016-Jun-28 09:33N 58°59' E 005°53'8 7.8
2016-Jun-28 08:34N 59°05' E 005°42'8 7.9
2016-Jun-28 07:34N 59°08' E 005°27'7 6.9
2016-Jun-28 06:33N 59°14' E 005°20'16 7.9
2016-Jun-28 04:29N 59°29' E 005°13'7 7.2
2016-Jun-28 03:30N 59°36' E 005°17'7 7.0
2016-Jun-28 02:33N 59°42' E 005°25'7 6.9
2016-Jun-28 01:33N 59°47' E 005°33'7 7.5
2016-Jun-28 00:33N 59°54' E 005°31'1 0.0
2016-Jun-26 19:31N 59°53' E 005°32'6 6.6
2016-Jun-26 18:33N 59°47' E 005°33'5 5.5
2016-Jun-26 17:33N 59°43' E 005°27'5 5.1
2016-Jun-26 16:33N 59°39' E 005°20'5 5.4
2016-Jun-26 15:33N 59°34' E 005°15'19 5.4
2016-Jun-26 12:07N 59°16' E 005°21'3 4.7
2016-Jun-26 11:32N 59°15' E 005°26'5 5.0
2016-Jun-26 10:33N 59°11' E 005°32'5 4.7
2016-Jun-26 09:34N 59°09' E 005°40'4 4.2
2016-Jun-26 08:34N 59°07' E 005°47'4 4.4
2016-Jun-26 07:34N 59°03' E 005°51'5 4.5
2016-Jun-26 06:33N 58°59' E 005°54'5 4.7
2016-Jun-26 05:32N 58°56' E 006°01'3 0.9
2016-Jun-26 02:05N 58°53' E 006°05'4 7.4
2016-Jun-26 01:33N 58°56' E 005°60'7 6.9
2016-Jun-26 00:33N 59°02' E 005°52'7 7.3
2016-Jun-25 23:33N 59°08' E 005°45'7 7.2
2016-Jun-25 22:33N 59°11' E 005°32'7 6.7
2016-Jun-25 21:33N 59°15' E 005°21'22 7.0
2016-Jun-25 18:29N 59°37' E 005°17'7 7.8
2016-Jun-25 17:32N 59°42' E 005°26'7 7.1
2016-Jun-25 16:32N 59°49' E 005°33'11 0.7
2016-Jun-25 00:33N 59°58' E 005°45'3 0.7
2016-Jun-24 20:13N 59°56' E 005°50'4 6.2
2016-Jun-24 19:33N 59°58' E 005°42'1 1.4
2016-Jun-24 18:32N 59°59' E 005°40'0 0.0
2016-Jun-24 17:33N 59°59' E 005°40'0 0.0
2016-Jun-24 16:33N 59°59' E 005°40'0 0.0
2016-Jun-24 15:32N 59°59' E 005°40'0 0.0
2016-Jun-24 14:28N 59°59' E 005°40'0 0.0
2016-Jun-24 13:27N 59°59' E 005°40'0 0.0
2016-Jun-24 12:33N 59°59' E 005°40'0 0.0
2016-Jun-24 11:33N 59°59' E 005°40'4 4.4
2016-Jun-24 10:33N 59°56' E 005°47'0 0.0
2016-Jun-23 00:30N 59°56' E 005°47'7 7.0
2016-Jun-22 23:33N 59°50' E 005°39'7 6.7
2016-Jun-22 22:33N 59°44' E 005°38'6 6.4
2016-Jun-22 21:33N 59°39' E 005°46'5 4.8
2016-Jun-22 20:32N 59°40' E 005°56'0 0.0
2016-Jun-22 19:33N 59°40' E 005°56'0 0.0
2016-Jun-22 18:33N 59°40' E 005°56'0 0.0
2016-Jun-22 17:33N 59°40' E 005°56'0 0.0
2016-Jun-22 16:33N 59°40' E 005°56'0 0.0
2016-Jun-22 15:33N 59°40' E 005°56'0 0.0
2016-Jun-22 14:33N 59°40' E 005°56'0 0.1
2016-Jun-22 13:32N 59°40' E 005°56'6 5.7
2016-Jun-22 12:33N 59°39' E 005°45'7 6.7
2016-Jun-22 11:33N 59°45' E 005°37'6 6.4
2016-Jun-22 10:33N 59°51' E 005°40'6 6.3
2016-Jun-22 09:33N 59°56' E 005°47'1 0.0
2016-Jun-21 10:33N 59°56' E 005°46'9 8.6
2016-Jun-21 09:33N 59°49' E 005°37'8 8.2
2016-Jun-21 08:33N 59°41' E 005°41'7 7.2
2016-Jun-21 07:33N 59°40' E 005°56'0 0.0
2016-Jun-21 05:33N 59°40' E 005°56'0 0.0
2016-Jun-21 04:33N 59°40' E 005°56'0 0.0
2016-Jun-21 03:33N 59°40' E 005°56'3 2.8
2016-Jun-21 02:33N 59°39' E 005°51'9 8.7
2016-Jun-21 01:33N 59°44' E 005°36'4 4.0
2016-Jun-21 00:33N 59°47' E 005°32'0 0.0
2016-Jun-20 23:32N 59°47' E 005°32'0 0.0
2016-Jun-20 22:32N 59°47' E 005°32'0 0.0
2016-Jun-20 21:32N 59°47' E 005°32'0 0.0
2016-Jun-20 20:32N 59°47' E 005°32'0 0.0
2016-Jun-20 19:32N 59°47' E 005°32'0 0.0
2016-Jun-20 18:32N 59°47' E 005°32'0 0.0
2016-Jun-20 17:32N 59°47' E 005°32'0 0.0
2016-Jun-20 16:32N 59°47' E 005°32'0 0.0
2016-Jun-20 15:32N 59°47' E 005°32'0 0.1
2016-Jun-20 14:33N 59°47' E 005°32'8 7.9
2016-Jun-20 13:34N 59°41' E 005°41'7 6.9
2016-Jun-20 12:30N 59°40' E 005°56'0 0.0
2016-Jun-20 11:32N 59°40' E 005°56'0 0.0
2016-Jun-20 10:32N 59°40' E 005°56'0 0.0
2016-Jun-20 09:32N 59°40' E 005°56'0 0.0
2016-Jun-20 08:32N 59°40' E 005°56'0 0.0
2016-Jun-20 07:33N 59°40' E 005°56'0 0.0
2016-Jun-20 06:33N 59°40' E 005°56'0 0.0
2016-Jun-20 05:32N 59°40' E 005°56'0 0.0
2016-Jun-20 04:31N 59°40' E 005°56'0 0.0
2016-Jun-20 03:31N 59°40' E 005°56'0 0.0
2016-Jun-20 02:33N 59°40' E 005°56'0 0.0
2016-Jun-20 01:32N 59°40' E 005°56'0 0.0
2016-Jun-20 00:31N 59°40' E 005°56'0 0.0
2016-Jun-19 23:33N 59°40' E 005°56'0 0.0
2016-Jun-19 22:33N 59°40' E 005°56'0 0.0
2016-Jun-19 21:32N 59°40' E 005°56'0 0.0
2016-Jun-19 20:33N 59°40' E 005°56'0 0.0
2016-Jun-19 19:34N 59°40' E 005°56'0 0.0
2016-Jun-19 18:31N 59°40' E 005°56'2 2.3
2016-Jun-19 17:33N 59°39' E 005°52'7 6.8
2016-Jun-19 16:33N 59°42' E 005°39'6 5.6
2016-Jun-19 15:33N 59°43' E 005°28'6 6.0
2016-Jun-19 14:33N 59°39' E 005°20'6 5.7
2016-Jun-19 13:33N 59°33' E 005°14'20 4.9
2016-Jun-19 09:33N 59°15' E 005°26'6 5.7
2016-Jun-19 08:33N 59°11' E 005°33'8 6.3
2016-Jun-19 07:18N 59°08' E 005°47'4 5.1
2016-Jun-19 06:29N 59°05' E 005°54'0 0.0
2016-Jun-19 05:29N 59°05' E 005°54'0 0.0
2016-Jun-19 04:33N 59°05' E 005°54'0 0.0
2016-Jun-19 03:21N 59°05' E 005°54'  
Track history (hours):
 
Tides and Currents Weather Stations Pressure Air Temp Water Temp Dewpoint Dewpoint Depression Visibility Wind Speed Wind Dir Waves Ship Positions

Straumvik

Last reported at 2016-Jun-28 22:27 UTC. Time now 2016-Jun-29 11:11 UTC.
Position N 59°30' E 005°13'.

Length 50 m; draft 5 m.

Type: Ship. MMSI: 258260000.

Date/timePositionNaut miles runAvg speedWind from/ knotsBaromVisibWave heightAir tempDewpointWater temp
2016-Jun-28 22:27N 59°30' E 005°13'16 4.0
2016-Jun-28 18:33N 59°15' E 005°21'6 6.3
2016-Jun-28 17:33N 59°09' E 005°24'6 6.0
2016-Jun-28 16:33N 59°07' E 005°35'7 6.6
2016-Jun-28 15:33N 59°03' E 005°46'7 6.5
2016-Jun-28 14:34N 58°58' E 005°55'7 6.7
2016-Jun-28 13:31N 58°54' E 006°05'0 0.1
2016-Jun-28 11:20N 58°54' E 006°05'1 1.4
2016-Jun-28 10:33N 58°54' E 006°04'8 7.7
2016-Jun-28 09:33N 58°59' E 005°53'8 7.8
2016-Jun-28 08:34N 59°05' E 005°42'8 7.9
2016-Jun-28 07:34N 59°08' E 005°27'7 6.9
2016-Jun-28 06:33N 59°14' E 005°20'16 7.9
2016-Jun-28 04:29N 59°29' E 005°13'7 7.2
2016-Jun-28 03:30N 59°36' E 005°17'7 7.0
2016-Jun-28 02:33N 59°42' E 005°25'7 6.9
2016-Jun-28 01:33N 59°47' E 005°33'7 7.5
2016-Jun-28 00:33N 59°54' E 005°31'1 0.0
2016-Jun-26 19:31N 59°53' E 005°32'6 6.6
2016-Jun-26 18:33N 59°47' E 005°33'5 5.5
2016-Jun-26 17:33N 59°43' E 005°27'5 5.1
2016-Jun-26 16:33N 59°39' E 005°20'5 5.4
2016-Jun-26 15:33N 59°34' E 005°15'19 5.4
2016-Jun-26 12:07N 59°16' E 005°21'3 4.7
2016-Jun-26 11:32N 59°15' E 005°26'5 5.0
2016-Jun-26 10:33N 59°11' E 005°32'5 4.7
2016-Jun-26 09:34N 59°09' E 005°40'4 4.2
2016-Jun-26 08:34N 59°07' E 005°47'4 4.4
2016-Jun-26 07:34N 59°03' E 005°51'5 4.5
2016-Jun-26 06:33N 58°59' E 005°54'5 4.7
2016-Jun-26 05:32N 58°56' E 006°01'3 0.9
2016-Jun-26 02:05N 58°53' E 006°05'4 7.4
2016-Jun-26 01:33N 58°56' E 005°60'7 6.9
2016-Jun-26 00:33N 59°02' E 005°52'7 7.3
2016-Jun-25 23:33N 59°08' E 005°45'7 7.2
2016-Jun-25 22:33N 59°11' E 005°32'7 6.7
2016-Jun-25 21:33N 59°15' E 005°21'22 7.0
2016-Jun-25 18:29N 59°37' E 005°17'7 7.8
2016-Jun-25 17:32N 59°42' E 005°26'7 7.1
2016-Jun-25 16:32N 59°49' E 005°33'11 0.7
2016-Jun-25 00:33N 59°58' E 005°45'3 0.7
2016-Jun-24 20:13N 59°56' E 005°50'4 6.2
2016-Jun-24 19:33N 59°58' E 005°42'1 1.4
2016-Jun-24 18:32N 59°59' E 005°40'0 0.0
2016-Jun-24 17:33N 59°59' E 005°40'0 0.0
2016-Jun-24 16:33N 59°59' E 005°40'0 0.0
2016-Jun-24 15:32N 59°59' E 005°40'0 0.0
2016-Jun-24 14:28N 59°59' E 005°40'0 0.0
2016-Jun-24 13:27N 59°59' E 005°40'0 0.0
2016-Jun-24 12:33N 59°59' E 005°40'0 0.0
2016-Jun-24 11:33N 59°59' E 005°40'4 4.4
2016-Jun-24 10:33N 59°56' E 005°47'0 0.0
2016-Jun-23 00:30N 59°56' E 005°47'7 7.0
2016-Jun-22 23:33N 59°50' E 005°39'7 6.7
2016-Jun-22 22:33N 59°44' E 005°38'6 6.4
2016-Jun-22 21:33N 59°39' E 005°46'5 4.8
2016-Jun-22 20:32N 59°40' E 005°56'0 0.0
2016-Jun-22 19:33N 59°40' E 005°56'0 0.0
2016-Jun-22 18:33N 59°40' E 005°56'0 0.0
2016-Jun-22 17:33N 59°40' E 005°56'0 0.0
2016-Jun-22 16:33N 59°40' E 005°56'0 0.0
2016-Jun-22 15:33N 59°40' E 005°56'0 0.0
2016-Jun-22 14:33N 59°40' E 005°56'0 0.1
2016-Jun-22 13:32N 59°40' E 005°56'6 5.7
2016-Jun-22 12:33N 59°39' E 005°45'7 6.7
2016-Jun-22 11:33N 59°45' E 005°37'6 6.4
2016-Jun-22 10:33N 59°51' E 005°40'6 6.3
2016-Jun-22 09:33N 59°56' E 005°47'1 0.0
2016-Jun-21 10:33N 59°56' E 005°46'9 8.6
2016-Jun-21 09:33N 59°49' E 005°37'8 8.2
2016-Jun-21 08:33N 59°41' E 005°41'7 7.2
2016-Jun-21 07:33N 59°40' E 005°56'0 0.0
2016-Jun-21 05:33N 59°40' E 005°56'0 0.0
2016-Jun-21 04:33N 59°40' E 005°56'0 0.0
2016-Jun-21 03:33N 59°40' E 005°56'3 2.8
2016-Jun-21 02:33N 59°39' E 005°51'9 8.7
2016-Jun-21 01:33N 59°44' E 005°36'4 4.0
2016-Jun-21 00:33N 59°47' E 005°32'0 0.0
2016-Jun-20 23:32N 59°47' E 005°32'0 0.0
2016-Jun-20 22:32N 59°47' E 005°32'0 0.0
2016-Jun-20 21:32N 59°47' E 005°32'0 0.0
2016-Jun-20 20:32N 59°47' E 005°32'0 0.0
2016-Jun-20 19:32N 59°47' E 005°32'0 0.0
2016-Jun-20 18:32N 59°47' E 005°32'0 0.0
2016-Jun-20 17:32N 59°47' E 005°32'0 0.0
2016-Jun-20 16:32N 59°47' E 005°32'0 0.0
2016-Jun-20 15:32N 59°47' E 005°32'0 0.1
2016-Jun-20 14:33N 59°47' E 005°32'8 7.9
2016-Jun-20 13:34N 59°41' E 005°41'7 6.9
2016-Jun-20 12:30N 59°40' E 005°56'0 0.0
2016-Jun-20 11:32N 59°40' E 005°56'0 0.0
2016-Jun-20 10:32N 59°40' E 005°56'0 0.0
2016-Jun-20 09:32N 59°40' E 005°56'0 0.0
2016-Jun-20 08:32N 59°40' E 005°56'0 0.0
2016-Jun-20 07:33N 59°40' E 005°56'0 0.0
2016-Jun-20 06:33N 59°40' E 005°56'0 0.0
2016-Jun-20 05:32N 59°40' E 005°56'0 0.0
2016-Jun-20 04:31N 59°40' E 005°56'0 0.0
2016-Jun-20 03:31N 59°40' E 005°56'0 0.0
2016-Jun-20 02:33N 59°40' E 005°56'0 0.0
2016-Jun-20 01:32N 59°40' E 005°56'0 0.0
2016-Jun-20 00:31N 59°40' E 005°56'0 0.0
2016-Jun-19 23:33N 59°40' E 005°56'0 0.0
2016-Jun-19 22:33N 59°40' E 005°56'0 0.0
2016-Jun-19 21:32N 59°40' E 005°56'0 0.0
2016-Jun-19 20:33N 59°40' E 005°56'0 0.0
2016-Jun-19 19:34N 59°40' E 005°56'0 0.0
2016-Jun-19 18:31N 59°40' E 005°56'2 2.3
2016-Jun-19 17:33N 59°39' E 005°52'7 6.8
2016-Jun-19 16:33N 59°42' E 005°39'6 5.6
2016-Jun-19 15:33N 59°43' E 005°28'6 6.0
2016-Jun-19 14:33N 59°39' E 005°20'6 5.7
2016-Jun-19 13:33N 59°33' E 005°14'20 4.9
2016-Jun-19 09:33N 59°15' E 005°26'6 5.7
2016-Jun-19 08:33N 59°11' E 005°33'8 6.3
2016-Jun-19 07:18N 59°08' E 005°47'4 5.1
2016-Jun-19 06:29N 59°05' E 005°54'0 0.0
2016-Jun-19 05:29N 59°05' E 005°54'0 0.0
2016-Jun-19 04:33N 59°05' E 005°54'0 0.0
2016-Jun-19 03:21N 59°05' E 005°54'  

Dump ship's entire track history